Time;durP1;ratioP1;P1;durP2;ratioP2;P2;SDS_P1;SDS_P2;PMS_P1;PMS_P2;Temp;Humidity;BMP_temperature;BMP_pressure;BME280_temperature;BME280_humidity;BME280_pressure;Samples;Min_cycle;Max_cycle;Signal;HPM_P1;HPM_P2
2023/12/23 00:00:07;;;;;;;3.00;3.00;;;0.90;81.00;;;;;;6300921;28;20341;-87
2023/12/23 00:03:10;;;;;;;3.23;3.00;;;1.00;80.90;;;;;;6288318;28;20240;-84
2023/12/23 00:06:15;;;;;;;2.97;2.90;;;1.00;80.70;;;;;;6297123;28;20242;-85
2023/12/23 00:09:18;;;;;;;3.70;3.27;;;1.00;80.80;;;;;;6294384;28;20233;-85
2023/12/23 00:12:23;;;;;;;2.80;2.80;;;1.00;80.80;;;;;;6289387;28;20260;-87
2023/12/23 00:15:28;;;;;;;2.83;2.83;;;0.90;80.90;;;;;;6293517;28;20241;-83
2023/12/23 00:18:31;;;;;;;3.30;3.27;;;1.00;80.90;;;;;;6277980;28;20238;-86
2023/12/23 00:21:34;;;;;;;3.50;3.40;;;1.00;81.00;;;;;;6296697;28;20350;-88
2023/12/23 00:24:38;;;;;;;3.23;3.20;;;1.00;81.00;;;;;;6302189;28;20230;-85
2023/12/23 00:27:43;;;;;;;3.00;3.00;;;1.00;80.80;;;;;;6294800;28;20226;-85
2023/12/23 00:30:46;;;;;;;3.87;3.10;;;1.10;80.70;;;;;;6288688;28;20234;-86
2023/12/23 00:33:49;;;;;;;3.03;2.93;;;1.00;80.80;;;;;;6308051;28;20233;-81
2023/12/23 00:36:53;;;;;;;2.90;2.90;;;1.00;80.60;;;;;;6315441;28;20241;-83
2023/12/23 00:39:56;;;;;;;2.93;2.90;;;1.00;80.70;;;;;;6306345;28;20431;-87
2023/12/23 00:43:01;;;;;;;3.20;3.20;;;1.00;80.90;;;;;;6283196;28;20238;-88
2023/12/23 00:46:04;;;;;;;3.10;3.00;;;0.90;81.10;;;;;;6290797;28;20237;-85
2023/12/23 00:49:09;;;;;;;3.30;3.10;;;0.80;81.50;;;;;;6286631;28;20248;-87
2023/12/23 00:52:12;;;;;;;3.00;3.00;;;0.80;81.70;;;;;;6290014;28;20921;-85
2023/12/23 00:55:15;;;;;;;3.33;3.17;;;0.90;81.70;;;;;;6294359;28;20238;-87
2023/12/23 00:58:23;;;;;;;3.10;3.10;;;0.80;81.90;;;;;;6269631;28;20238;-82
2023/12/23 01:01:26;;;;;;;3.20;3.20;;;0.80;82.20;;;;;;6280003;28;20607;-85
2023/12/23 01:04:30;;;;;;;3.10;3.10;;;0.80;82.20;;;;;;6288138;28;20257;-86
2023/12/23 01:07:33;;;;;;;3.23;3.13;;;0.80;82.20;;;;;;6295795;28;20670;-85
2023/12/23 01:10:36;;;;;;;3.13;3.03;;;0.90;81.80;;;;;;6285325;28;20249;-84
2023/12/23 01:13:41;;;;;;;3.57;3.27;;;0.80;82.10;;;;;;6289091;28;20249;-87
2023/12/23 01:16:45;;;;;;;3.63;3.43;;;0.90;81.90;;;;;;6306771;28;20225;-82
2023/12/23 01:19:49;;;;;;;3.60;3.40;;;1.00;81.90;;;;;;6297772;28;20217;-85
2023/12/23 01:22:52;;;;;;;5.23;3.63;;;1.00;82.00;;;;;;6287224;28;20604;-83
2023/12/23 01:25:55;;;;;;;3.87;3.50;;;1.00;81.90;;;;;;6298441;28;20233;-84
2023/12/23 01:29:00;;;;;;;3.90;3.70;;;1.00;81.70;;;;;;6290383;28;20233;-85
2023/12/23 01:32:04;;;;;;;3.50;3.30;;;1.10;81.60;;;;;;6278810;28;20297;-85
2023/12/23 01:35:08;;;;;;;4.00;3.70;;;1.10;81.30;;;;;;6297157;28;20237;-83
2023/12/23 01:38:11;;;;;;;3.50;3.20;;;1.10;81.00;;;;;;6298329;28;20233;-86
2023/12/23 01:41:15;;;;;;;6.00;4.10;;;1.10;80.60;;;;;;6296021;28;20249;-82
2023/12/23 01:44:20;;;;;;;4.30;3.63;;;1.20;80.10;;;;;;6312215;28;20229;-82
2023/12/23 01:47:23;;;;;;;3.97;3.57;;;1.20;79.90;;;;;;6304855;28;20242;-84
2023/12/23 01:50:29;;;;;;;3.87;3.67;;;1.20;79.60;;;;;;6298807;28;20240;-84
2023/12/23 01:53:32;;;;;;;3.80;3.40;;;1.10;79.40;;;;;;6305526;28;20692;-87
2023/12/23 01:56:36;;;;;;;3.50;3.20;;;1.20;79.10;;;;;;6296678;28;20768;-85
2023/12/23 01:59:40;;;;;;;3.67;3.37;;;1.20;78.40;;;;;;6298490;28;20244;-84
2023/12/23 02:02:45;;;;;;;5.63;3.80;;;1.20;78.20;;;;;;6295190;28;20249;-84
2023/12/23 02:05:48;;;;;;;5.57;3.60;;;1.30;78.10;;;;;;6283820;28;20245;-85
2023/12/23 02:08:51;;;;;;;3.93;3.60;;;1.20;77.80;;;;;;6284416;28;20316;-86
2023/12/23 02:12:08;;;;;;;3.63;3.53;;;1.20;77.80;;;;;;6272480;28;20237;-85
2023/12/23 02:15:17;;;;;;;4.30;3.53;;;1.20;77.80;;;;;;6300558;28;20237;-85
2023/12/23 02:18:21;;;;;;;3.30;3.30;;;1.20;77.70;;;;;;6291280;28;20238;-85
2023/12/23 02:21:31;;;;;;;3.43;3.23;;;1.20;77.70;;;;;;6294409;28;20233;-83
2023/12/23 02:24:34;;;;;;;4.00;3.70;;;1.30;77.20;;;;;;6289816;28;20252;-83
2023/12/23 02:27:42;;;;;;;3.27;3.07;;;1.30;77.00;;;;;;6286573;28;20286;-86
2023/12/23 02:30:47;;;;;;;4.00;3.63;;;1.20;77.20;;;;;;6295952;28;20244;-85
2023/12/23 02:33:50;;;;;;;3.80;3.50;;;1.20;77.30;;;;;;6290772;28;20258;-87
2023/12/23 02:36:55;;;;;;;3.40;3.20;;;1.20;77.20;;;;;;6291040;28;20304;-87
2023/12/23 02:39:59;;;;;;;4.87;3.27;;;1.10;77.40;;;;;;6285329;28;20229;-84
2023/12/23 02:43:02;;;;;;;3.93;3.53;;;1.10;77.40;;;;;;6287936;28;20221;-83
2023/12/23 02:46:06;;;;;;;4.23;3.47;;;1.00;77.40;;;;;;6291664;28;20237;-84
2023/12/23 02:49:09;;;;;;;3.50;3.30;;;1.00;77.50;;;;;;6291781;28;20234;-84
2023/12/23 02:52:14;;;;;;;3.50;3.40;;;1.00;76.90;;;;;;6285135;28;20271;-84
2023/12/23 02:55:18;;;;;;;3.40;3.20;;;1.00;76.80;;;;;;6295477;28;20859;-84
2023/12/23 02:58:22;;;;;;;3.63;3.43;;;1.00;76.40;;;;;;6297319;28;20233;-86
2023/12/23 03:01:25;;;;;;;3.43;3.20;;;1.10;76.00;;;;;;6290000;28;20252;-82
2023/12/23 03:04:29;;;;;;;4.43;3.17;;;1.10;75.60;;;;;;6285456;28;20245;-84
2023/12/23 03:07:33;;;;;;;4.10;3.77;;;1.10;75.50;;;;;;6290378;28;20245;-85
2023/12/23 03:10:36;;;;;;;4.27;3.20;;;1.00;75.50;;;;;;6280072;28;20260;-86
2023/12/23 03:13:40;;;;;;;3.13;3.03;;;1.00;75.20;;;;;;6289296;28;20241;-87
2023/12/23 03:16:43;;;;;;;3.07;3.00;;;1.00;75.30;;;;;;6287940;28;20241;-84
2023/12/23 03:19:46;;;;;;;3.50;3.33;;;1.00;75.00;;;;;;6287494;28;20234;-84
2023/12/23 03:22:51;;;;;;;3.23;3.00;;;1.00;75.40;;;;;;6299546;28;20227;-86
2023/12/23 03:25:55;;;;;;;3.20;3.20;;;1.00;75.20;;;;;;6301565;28;20847;-85
2023/12/23 03:28:58;;;;;;;3.47;3.37;;;0.90;75.20;;;;;;6295510;28;20236;-83
2023/12/23 03:32:01;;;;;;;3.37;3.27;;;1.00;75.20;;;;;;6304676;28;20224;-84
2023/12/23 03:35:05;;;;;;;3.77;3.57;;;0.90;75.20;;;;;;6289389;28;20264;-85
2023/12/23 03:38:10;;;;;;;3.50;3.17;;;0.90;75.40;;;;;;6295362;28;20247;-84
2023/12/23 03:41:13;;;;;;;3.30;3.10;;;1.00;75.20;;;;;;6285215;28;20744;-86
2023/12/23 03:44:17;;;;;;;3.00;2.90;;;1.00;75.00;;;;;;6303021;28;20396;-84
2023/12/23 03:47:20;;;;;;;3.40;3.10;;;1.00;74.80;;;;;;6296392;28;20596;-85
2023/12/23 03:50:23;;;;;;;3.63;3.33;;;1.00;74.70;;;;;;6297598;28;20256;-82
2023/12/23 03:53:28;;;;;;;3.83;3.50;;;1.00;74.70;;;;;;6292922;28;20234;-84
2023/12/23 03:56:37;;;;;;;4.93;3.77;;;1.00;74.90;;;;;;6315091;28;20221;-82
2023/12/23 03:59:40;;;;;;;6.53;3.70;;;1.00;74.70;;;;;;6311522;28;20339;-81
2023/12/23 04:02:43;;;;;;;3.60;3.30;;;1.00;74.70;;;;;;6306515;28;20824;-84
2023/12/23 04:05:47;;;;;;;3.73;3.50;;;1.00;74.90;;;;;;6281187;28;20851;-86
2023/12/23 04:08:51;;;;;;;3.90;3.60;;;1.00;74.60;;;;;;6299450;28;20236;-86
2023/12/23 04:11:55;;;;;;;3.97;3.67;;;1.00;74.50;;;;;;6288178;28;20226;-86
2023/12/23 04:14:58;;;;;;;3.73;3.57;;;1.10;74.20;;;;;;6285285;28;20234;-85
2023/12/23 04:18:01;;;;;;;4.90;4.03;;;1.20;73.80;;;;;;6296530;28;20237;-87
2023/12/23 04:21:09;;;;;;;4.30;3.90;;;1.20;73.60;;;;;;6298781;28;20252;-85
2023/12/23 04:24:14;;;;;;;4.60;3.80;;;1.30;73.50;;;;;;6290098;28;20260;-86
2023/12/23 04:27:17;;;;;;;3.77;3.57;;;1.40;73.40;;;;;;6281866;28;20289;-86
2023/12/23 04:30:20;;;;;;;6.50;4.10;;;1.30;73.20;;;;;;6290640;28;20245;-84
2023/12/23 04:33:24;;;;;;;6.30;4.10;;;1.30;73.00;;;;;;6290287;28;20312;-85
2023/12/23 04:36:27;;;;;;;3.87;3.57;;;1.40;72.90;;;;;;6292358;28;20229;-80
2023/12/23 04:39:32;;;;;;;6.30;4.17;;;1.40;72.60;;;;;;6281124;28;20893;-84
2023/12/23 04:42:35;;;;;;;4.23;4.03;;;1.40;72.30;;;;;;6301149;28;20249;-86
2023/12/23 04:45:38;;;;;;;8.33;4.30;;;1.40;71.70;;;;;;6303357;28;20234;-85
2023/12/23 04:48:45;;;;;;;6.50;4.00;;;1.50;71.60;;;;;;6291532;28;20322;-83
2023/12/23 04:51:48;;;;;;;4.80;4.50;;;1.50;71.30;;;;;;6288191;28;20736;-85
2023/12/23 04:54:55;;;;;;;11.90;3.90;;;1.60;71.10;;;;;;6299148;28;20248;-84
2023/12/23 04:57:59;;;;;;;7.77;4.57;;;1.60;70.90;;;;;;6304626;28;20229;-86
2023/12/23 05:01:02;;;;;;;6.57;4.17;;;1.60;70.90;;;;;;6294883;28;20755;-83
2023/12/23 05:04:05;;;;;;;9.30;4.07;;;1.60;70.90;;;;;;6302265;28;20238;-85
2023/12/23 05:07:09;;;;;;;12.20;4.50;;;1.60;70.70;;;;;;6307386;28;20252;-85
2023/12/23 05:10:13;;;;;;;8.23;4.03;;;1.70;71.00;;;;;;6298612;28;20225;-85
2023/12/23 05:13:16;;;;;;;4.60;3.90;;;1.70;71.20;;;;;;6296075;28;20240;-85
2023/12/23 05:16:20;;;;;;;4.40;4.00;;;1.70;71.50;;;;;;6302950;28;20259;-84
2023/12/23 05:19:23;;;;;;;6.07;4.47;;;1.70;71.50;;;;;;6300371;28;20245;-82
2023/12/23 05:22:26;;;;;;;7.10;4.40;;;1.70;71.90;;;;;;6305766;28;20333;-83
2023/12/23 05:25:35;;;;;;;8.77;4.40;;;1.70;72.10;;;;;;6302116;28;20233;-86
2023/12/23 05:28:38;;;;;;;13.10;5.30;;;1.70;72.50;;;;;;6295901;28;20238;-85
2023/12/23 05:31:42;;;;;;;9.63;4.27;;;1.70;72.70;;;;;;6290734;28;20249;-85
2023/12/23 05:34:47;;;;;;;7.13;4.73;;;1.70;73.20;;;;;;6290821;28;20233;-86
2023/12/23 05:37:51;;;;;;;9.63;4.80;;;1.80;73.20;;;;;;6288961;28;20245;-84
2023/12/23 05:40:56;;;;;;;6.20;4.50;;;1.80;73.20;;;;;;6294308;28;20240;-86
2023/12/23 05:43:59;;;;;;;9.90;4.60;;;1.80;73.40;;;;;;6305034;28;20232;-85
2023/12/23 05:47:03;;;;;;;10.10;4.10;;;1.90;73.20;;;;;;6308899;28;20242;-83
2023/12/23 05:50:08;;;;;;;8.40;4.87;;;1.90;73.30;;;;;;6300103;28;20230;-84
2023/12/23 05:53:11;;;;;;;9.30;4.43;;;1.90;73.30;;;;;;6309662;28;20238;-83
2023/12/23 05:56:16;;;;;;;3.83;3.60;;;2.00;73.40;;;;;;6305821;28;20440;-84
2023/12/23 05:59:19;;;;;;;13.17;4.20;;;2.00;73.50;;;;;;6301451;28;20238;-83
2023/12/23 06:02:22;;;;;;;6.90;4.10;;;2.00;73.50;;;;;;6292784;28;20249;-85
2023/12/23 06:05:26;;;;;;;4.57;4.00;;;2.10;73.50;;;;;;6284608;28;20740;-84
2023/12/23 06:08:30;;;;;;;7.10;4.30;;;2.10;73.70;;;;;;6277292;28;20310;-82
2023/12/23 06:11:34;;;;;;;6.37;4.33;;;2.10;74.00;;;;;;6277837;28;20607;-81
2023/12/23 06:14:38;;;;;;;7.10;4.50;;;2.00;74.30;;;;;;6280024;28;20233;-83
2023/12/23 06:17:41;;;;;;;10.10;4.77;;;2.00;74.60;;;;;;6280869;28;20248;-83
2023/12/23 06:20:44;;;;;;;8.47;4.70;;;2.00;74.90;;;;;;6272670;28;20367;-85
2023/12/23 06:23:47;;;;;;;6.50;4.10;;;2.00;75.00;;;;;;6292037;28;20354;-83
2023/12/23 06:26:54;;;;;;;6.13;4.57;;;2.00;75.20;;;;;;6276000;28;20252;-84
2023/12/23 06:29:57;;;;;;;7.20;4.40;;;2.00;75.50;;;;;;6285903;28;20378;-83
2023/12/23 06:33:00;;;;;;;9.53;4.63;;;2.00;75.50;;;;;;6283820;28;20976;-86
2023/12/23 06:36:04;;;;;;;8.60;4.73;;;2.00;75.70;;;;;;6284016;28;20336;-78
2023/12/23 06:39:07;;;;;;;6.60;4.20;;;2.10;75.70;;;;;;6273115;28;20307;-79
2023/12/23 06:42:11;;;;;;;7.27;4.23;;;2.10;75.70;;;;;;6265659;28;20225;-80
2023/12/23 06:45:15;;;;;;;4.37;3.93;;;2.00;75.90;;;;;;6279464;28;20372;-80
2023/12/23 06:48:19;;;;;;;7.60;4.37;;;2.00;76.00;;;;;;6273652;28;20246;-80
2023/12/23 06:51:22;;;;;;;11.40;4.40;;;2.10;76.00;;;;;;6280898;28;20278;-79
2023/12/23 06:54:25;;;;;;;8.50;4.27;;;2.10;76.20;;;;;;6286884;28;20237;-80
2023/12/23 06:57:29;;;;;;;6.87;4.70;;;2.10;76.30;;;;;;6280757;28;20860;-76
2023/12/23 07:00:32;;;;;;;10.40;4.70;;;2.10;76.40;;;;;;6292719;28;20245;-79
2023/12/23 07:03:36;;;;;;;4.57;4.00;;;2.20;76.00;;;;;;6294365;28;20743;-79
2023/12/23 07:06:39;;;;;;;6.63;4.23;;;2.20;76.00;;;;;;6279512;28;20248;-78
2023/12/23 07:09:42;;;;;;;6.40;3.97;;;2.20;75.90;;;;;;6278394;28;20221;-79
2023/12/23 07:12:49;;;;;;;5.37;4.33;;;2.20;75.80;;;;;;6287990;28;20363;-80
2023/12/23 07:15:52;;;;;;;10.60;4.90;;;2.20;75.70;;;;;;6283225;28;20701;-80
2023/12/23 07:18:56;;;;;;;7.63;4.63;;;2.20;75.70;;;;;;6288160;28;20238;-78
2023/12/23 07:21:59;;;;;;;10.70;4.73;;;2.20;75.90;;;;;;6285518;28;20540;-78
2023/12/23 07:25:03;;;;;;;9.23;4.37;;;2.20;76.40;;;;;;6287430;28;20710;-80
2023/12/23 07:28:08;;;;;;;9.77;4.00;;;2.20;76.70;;;;;;6290402;28;20237;-80
2023/12/23 07:31:12;;;;;;;4.37;3.97;;;2.20;76.70;;;;;;6283726;28;20267;-79
2023/12/23 07:34:15;;;;;;;7.20;4.07;;;2.20;76.70;;;;;;6276004;28;20833;-80
2023/12/23 07:37:18;;;;;;;4.63;3.77;;;2.20;76.60;;;;;;6285307;28;20710;-78
2023/12/23 07:40:21;;;;;;;7.80;4.40;;;2.20;76.80;;;;;;6283338;28;20824;-80
2023/12/23 07:43:26;;;;;;;4.87;3.97;;;2.20;76.90;;;;;;6287771;28;20233;-80
2023/12/23 07:46:29;;;;;;;6.50;4.20;;;2.20;76.70;;;;;;6287858;28;20297;-77
2023/12/23 07:49:32;;;;;;;8.00;4.13;;;2.30;76.80;;;;;;6287188;28;20995;-79
2023/12/23 07:52:39;;;;;;;6.13;4.03;;;2.20;77.20;;;;;;6277088;28;20245;-80
2023/12/23 07:55:42;;;;;;;4.53;4.07;;;2.20;77.40;;;;;;6278566;28;20252;-80
2023/12/23 07:58:47;;;;;;;4.67;3.77;;;2.20;77.50;;;;;;6279184;28;20233;-78
2023/12/23 08:01:50;;;;;;;3.87;3.60;;;2.10;77.60;;;;;;6278775;28;20240;-80
2023/12/23 08:04:53;;;;;;;4.27;3.90;;;2.20;77.50;;;;;;6281044;28;20241;-78
2023/12/23 08:07:56;;;;;;;3.60;3.40;;;2.20;77.50;;;;;;6289363;28;20237;-79
2023/12/23 08:10:59;;;;;;;4.10;3.67;;;2.20;77.50;;;;;;6282602;28;20244;-76
2023/12/23 08:14:05;;;;;;;4.13;3.90;;;2.10;77.60;;;;;;6284314;28;20256;-80
2023/12/23 08:17:08;;;;;;;4.00;3.63;;;2.10;77.60;;;;;;6288810;28;20256;-79
2023/12/23 08:20:12;;;;;;;4.03;3.73;;;2.10;77.90;;;;;;6272857;28;20290;-80
2023/12/23 08:23:15;;;;;;;3.57;3.37;;;2.20;77.70;;;;;;6287105;28;20757;-77
2023/12/23 08:26:18;;;;;;;6.60;4.13;;;2.20;77.60;;;;;;6287811;28;20713;-79
2023/12/23 08:29:24;;;;;;;4.00;3.70;;;2.20;77.70;;;;;;6284599;28;20244;-79
2023/12/23 08:32:27;;;;;;;4.03;3.77;;;2.10;78.10;;;;;;6286187;28;20264;-79
2023/12/23 08:35:31;;;;;;;5.23;3.93;;;2.20;78.10;;;;;;6285680;28;20241;-77
2023/12/23 08:38:35;;;;;;;3.57;3.47;;;2.10;78.20;;;;;;6285907;28;20233;-80
2023/12/23 08:41:38;;;;;;;4.00;3.60;;;2.20;78.20;;;;;;6285482;28;20236;-78
2023/12/23 08:44:43;;;;;;;4.17;3.80;;;2.20;78.30;;;;;;6290434;28;20331;-78
2023/12/23 08:47:46;;;;;;;3.97;3.50;;;2.20;78.30;;;;;;6285941;28;20795;-80
2023/12/23 08:50:49;;;;;;;5.67;3.70;;;2.20;78.40;;;;;;6248481;28;1096973;-80
2023/12/23 08:53:52;;;;;;;5.47;3.93;;;2.20;78.60;;;;;;6286003;28;20237;-75
2023/12/23 08:56:56;;;;;;;5.40;3.93;;;2.20;78.80;;;;;;6291045;28;20901;-81
2023/12/23 09:00:01;;;;;;;5.73;3.70;;;2.20;78.70;;;;;;6284883;28;20303;-80
2023/12/23 09:03:04;;;;;;;4.33;3.93;;;2.30;78.60;;;;;;6281975;28;20367;-80
2023/12/23 09:06:08;;;;;;;8.10;4.23;;;2.30;78.60;;;;;;6276234;28;20237;-82
2023/12/23 09:09:12;;;;;;;4.53;4.07;;;2.30;78.40;;;;;;6284117;28;20248;-79
2023/12/23 09:12:18;;;;;;;4.13;3.83;;;2.40;78.40;;;;;;6282882;28;20598;-79
2023/12/23 09:15:23;;;;;;;4.67;3.90;;;2.40;78.20;;;;;;6281782;28;20562;-77
2023/12/23 09:18:26;;;;;;;6.10;4.33;;;2.40;78.30;;;;;;6287042;28;20808;-80
2023/12/23 09:21:29;;;;;;;4.93;4.00;;;2.40;78.40;;;;;;6288906;28;20317;-80
2023/12/23 09:24:32;;;;;;;5.73;3.70;;;2.40;78.40;;;;;;6283455;28;20233;-79
2023/12/23 09:27:35;;;;;;;4.27;4.07;;;2.40;78.20;;;;;;6287356;28;20237;-80
2023/12/23 09:30:41;;;;;;;4.10;3.90;;;2.40;78.30;;;;;;6288169;28;20237;-80
2023/12/23 09:33:44;;;;;;;7.90;3.53;;;2.40;78.50;;;;;;6279612;28;20314;-79
2023/12/23 09:36:48;;;;;;;4.40;3.53;;;2.30;78.40;;;;;;6280687;28;20237;-81
2023/12/23 09:39:53;;;;;;;4.63;4.00;;;2.40;78.20;;;;;;6280609;28;20306;-81
2023/12/23 09:42:56;;;;;;;3.80;3.60;;;2.20;78.40;;;;;;6278806;28;20324;-81
2023/12/23 09:46:03;;;;;;;3.90;3.70;;;2.20;78.60;;;;;;6283073;28;20756;-79
2023/12/23 09:49:06;;;;;;;4.47;4.07;;;2.10;78.70;;;;;;6277084;28;20245;-79
2023/12/23 09:52:12;;;;;;;5.77;3.60;;;2.20;78.90;;;;;;6285439;28;20240;-79
2023/12/23 09:55:18;;;;;;;3.50;3.30;;;2.10;79.00;;;;;;6277918;28;20241;-78
2023/12/23 09:58:21;;;;;;;3.97;3.67;;;2.00;79.30;;;;;;6285168;28;20237;-80
2023/12/23 10:01:26;;;;;;;4.57;4.20;;;2.00;79.70;;;;;;6284543;28;20781;-78
2023/12/23 10:04:29;;;;;;;3.80;3.50;;;2.00;79.90;;;;;;6278254;28;20614;-78
2023/12/23 10:07:33;;;;;;;4.13;3.80;;;2.00;80.00;;;;;;6287084;28;20224;-80
2023/12/23 10:10:36;;;;;;;3.70;3.60;;;1.90;80.10;;;;;;6287362;28;20237;-78
2023/12/23 10:13:39;;;;;;;3.63;3.50;;;1.90;79.90;;;;;;6278477;28;20234;-78
2023/12/23 10:16:44;;;;;;;3.77;3.50;;;1.80;80.20;;;;;;6283119;28;20298;-81
2023/12/23 10:19:52;;;;;;;3.30;3.30;;;1.80;80.20;;;;;;6278580;28;20238;-80
2023/12/23 10:22:55;;;;;;;3.40;3.30;;;1.80;80.20;;;;;;6281297;28;20233;-81
2023/12/23 10:25:59;;;;;;;3.53;3.43;;;1.80;80.30;;;;;;6289189;28;20237;-78
2023/12/23 10:29:04;;;;;;;3.33;3.23;;;1.90;80.40;;;;;;6275604;28;20332;-79
2023/12/23 10:32:13;;;;;;;3.30;3.10;;;1.80;80.10;;;;;;6286116;28;20662;-79
2023/12/23 10:35:18;;;;;;;3.40;3.30;;;1.80;80.00;;;;;;6283608;28;20248;-79
2023/12/23 10:38:22;;;;;;;4.63;3.47;;;1.70;80.00;;;;;;6285923;28;20811;-80
2023/12/23 10:41:34;;;;;;;3.70;3.60;;;1.70;80.20;;;;;;6284861;28;20253;-80
2023/12/23 10:44:41;;;;;;;3.40;3.20;;;1.70;80.20;;;;;;6283974;28;20240;-79
2023/12/23 10:47:47;;;;;;;3.50;3.40;;;1.60;80.20;;;;;;6283140;28;20229;-79
2023/12/23 10:50:51;;;;;;;3.70;3.50;;;1.50;80.60;;;;;;6275651;28;20236;-77
2023/12/23 10:53:56;;;;;;;4.27;3.87;;;1.50;80.80;;;;;;6282579;28;20245;-77
2023/12/23 10:57:00;;;;;;;3.60;3.40;;;1.40;81.00;;;;;;6285068;28;20265;-77
2023/12/23 11:00:04;;;;;;;3.70;3.60;;;1.40;81.20;;;;;;6278843;28;20290;-78
2023/12/23 11:03:09;;;;;;;3.30;3.20;;;1.50;81.10;;;;;;6282906;28;20229;-77
2023/12/23 11:06:13;;;;;;;3.73;3.53;;;1.50;80.70;;;;;;6266103;28;20240;-79
2023/12/23 11:09:17;;;;;;;4.03;3.93;;;1.40;80.90;;;;;;6267778;28;20780;-77
2023/12/23 11:12:20;;;;;;;3.30;3.20;;;1.40;81.20;;;;;;6264841;28;20229;-78
2023/12/23 11:15:24;;;;;;;4.10;4.00;;;1.40;81.30;;;;;;6267373;28;20241;-79
2023/12/23 11:18:29;;;;;;;4.03;3.93;;;1.20;81.50;;;;;;6271566;28;20839;-80
2023/12/23 11:21:34;;;;;;;3.73;3.63;;;1.20;81.40;;;;;;6272050;28;20720;-81
2023/12/23 11:24:38;;;;;;;4.20;4.00;;;1.20;81.60;;;;;;6263778;28;20316;-80
2023/12/23 11:27:41;;;;;;;4.43;4.23;;;1.20;81.60;;;;;;6278525;28;20240;-79
2023/12/23 11:30:47;;;;;;;4.77;4.57;;;1.20;82.00;;;;;;6279276;28;20244;-78
2023/12/23 11:33:53;;;;;;;4.27;4.17;;;1.30;82.10;;;;;;6278064;28;20230;-79
2023/12/23 11:36:58;;;;;;;4.67;4.47;;;1.20;82.20;;;;;;6272549;28;20237;-79
2023/12/23 11:40:03;;;;;;;4.23;4.13;;;1.20;82.30;;;;;;6274779;28;20233;-80
2023/12/23 11:43:06;;;;;;;4.50;4.40;;;1.30;82.30;;;;;;6271250;28;20875;-80
2023/12/23 11:46:09;;;;;;;4.27;4.17;;;1.40;82.00;;;;;;6272822;28;20875;-78
2023/12/23 11:49:15;;;;;;;4.07;3.80;;;1.40;82.00;;;;;;6274432;28;20244;-80
2023/12/23 11:52:18;;;;;;;4.50;4.20;;;1.40;81.90;;;;;;6284600;28;20255;-79
2023/12/23 11:55:22;;;;;;;4.13;4.00;;;1.40;82.00;;;;;;6280499;28;20295;-78
2023/12/23 11:58:25;;;;;;;4.60;4.30;;;1.40;82.40;;;;;;6281626;28;20241;-78
2023/12/23 12:01:28;;;;;;;4.23;4.03;;;1.40;82.30;;;;;;6286753;28;20249;-80
2023/12/23 12:04:33;;;;;;;4.00;3.70;;;1.50;81.90;;;;;;6286204;28;20316;-80
2023/12/23 12:07:36;;;;;;;3.67;3.63;;;1.40;81.50;;;;;;6287029;28;20245;-78
2023/12/23 12:10:39;;;;;;;3.73;3.63;;;1.40;81.10;;;;;;6284113;28;20253;-79
2023/12/23 12:13:46;;;;;;;3.87;3.67;;;1.40;80.50;;;;;;6282185;28;20298;-77
2023/12/23 12:16:49;;;;;;;3.70;3.60;;;1.40;80.40;;;;;;6284788;28;20233;-79
2023/12/23 12:19:55;;;;;;;3.60;3.40;;;1.40;79.70;;;;;;6286835;28;20228;-78
2023/12/23 12:22:58;;;;;;;5.30;3.73;;;1.20;80.20;;;;;;6281003;28;20732;-80
2023/12/23 12:26:01;;;;;;;4.00;3.80;;;1.20;80.40;;;;;;6274554;28;20874;-79
2023/12/23 12:29:05;;;;;;;3.87;3.30;;;1.20;79.80;;;;;;6284302;28;20240;-78
2023/12/23 12:32:12;;;;;;;4.43;3.77;;;1.10;80.30;;;;;;6287677;28;20237;-79
2023/12/23 12:35:17;;;;;;;3.87;3.67;;;1.10;80.50;;;;;;6275550;28;20922;-78
2023/12/23 12:38:21;;;;;;;4.07;3.77;;;1.20;80.50;;;;;;6274869;28;20233;-78
2023/12/23 12:41:27;;;;;;;3.60;3.50;;;1.30;80.40;;;;;;6277465;28;20324;-80
2023/12/23 12:44:30;;;;;;;5.13;4.33;;;1.20;80.50;;;;;;6283181;28;20261;-80
2023/12/23 12:47:36;;;;;;;4.67;4.20;;;1.30;80.40;;;;;;6278923;28;20248;-81
2023/12/23 12:50:42;;;;;;;5.00;3.90;;;1.40;80.40;;;;;;6271711;28;20234;-80
2023/12/23 12:53:47;;;;;;;4.03;3.83;;;1.40;80.20;;;;;;6280225;28;20710;-80
2023/12/23 12:56:50;;;;;;;4.03;3.90;;;1.40;79.90;;;;;;6278061;28;20245;-80
2023/12/23 12:59:53;;;;;;;4.10;3.83;;;1.40;79.70;;;;;;6281467;28;20829;-80
2023/12/23 13:02:56;;;;;;;3.90;3.70;;;1.50;80.00;;;;;;6277376;28;20249;-80
2023/12/23 13:06:03;;;;;;;4.20;4.00;;;1.50;80.00;;;;;;6280369;28;20249;-79
2023/12/23 13:09:07;;;;;;;4.03;3.80;;;1.50;80.30;;;;;;6280910;28;20864;-79
2023/12/23 13:12:10;;;;;;;4.10;3.87;;;1.60;80.30;;;;;;6280216;28;20241;-80
2023/12/23 13:15:14;;;;;;;3.87;3.77;;;1.60;80.20;;;;;;6279467;28;20702;-81
2023/12/23 13:18:17;;;;;;;4.10;3.90;;;1.50;80.40;;;;;;6258643;28;20327;-78
2023/12/23 13:21:21;;;;;;;4.10;4.00;;;1.50;80.50;;;;;;6276694;28;20759;-80
2023/12/23 13:24:24;;;;;;;3.70;3.50;;;1.50;81.00;;;;;;6283271;28;20250;-78
2023/12/23 13:27:28;;;;;;;4.03;3.73;;;1.50;80.70;;;;;;6281973;28;20240;-80
2023/12/23 13:30:31;;;;;;;3.80;3.70;;;1.60;80.80;;;;;;6282713;28;20264;-79
2023/12/23 13:33:34;;;;;;;3.93;3.83;;;1.60;80.60;;;;;;6280302;28;20237;-80
2023/12/23 13:36:39;;;;;;;4.40;4.07;;;1.60;80.50;;;;;;6280096;28;20238;-77
2023/12/23 13:39:42;;;;;;;4.50;3.90;;;1.70;80.50;;;;;;6277608;28;20230;-79
2023/12/23 13:42:45;;;;;;;3.40;3.40;;;1.70;80.50;;;;;;6271892;28;20264;-78
2023/12/23 13:45:49;;;;;;;3.73;3.73;;;1.80;80.50;;;;;;6276044;28;20233;-78
2023/12/23 13:48:52;;;;;;;3.53;3.40;;;1.80;80.50;;;;;;6285126;28;20233;-73
2023/12/23 13:51:57;;;;;;;4.73;4.43;;;1.80;80.50;;;;;;6282740;28;20240;-80
2023/12/23 13:55:03;;;;;;;3.40;3.20;;;1.80;80.80;;;;;;6273711;28;20825;-80
2023/12/23 13:58:10;;;;;;;3.67;3.37;;;1.80;80.50;;;;;;6267068;28;21013;-79
2023/12/23 14:01:13;;;;;;;3.50;3.40;;;1.80;80.50;;;;;;6280614;28;20269;-80
2023/12/23 14:04:16;;;;;;;3.30;3.30;;;1.80;80.40;;;;;;6277573;28;20246;-78
2023/12/23 14:07:21;;;;;;;3.40;3.33;;;1.90;80.20;;;;;;6283380;28;20614;-79
2023/12/23 14:10:24;;;;;;;3.67;3.47;;;1.90;80.30;;;;;;6272526;28;20861;-80
2023/12/23 14:13:27;;;;;;;3.47;3.47;;;1.80;80.40;;;;;;6271114;28;20238;-79
2023/12/23 14:16:30;;;;;;;4.07;3.60;;;1.80;80.50;;;;;;6270597;28;20264;-76
2023/12/23 14:19:34;;;;;;;3.93;3.73;;;1.90;80.40;;;;;;6273960;28;20831;-79
2023/12/23 14:22:38;;;;;;;3.60;3.40;;;1.80;80.50;;;;;;6283454;28;20233;-80
2023/12/23 14:25:42;;;;;;;3.60;3.50;;;1.90;80.60;;;;;;6269147;28;20236;-80
2023/12/23 14:28:45;;;;;;;3.50;3.40;;;1.90;80.50;;;;;;6280992;28;20233;-79
2023/12/23 14:31:49;;;;;;;4.10;3.80;;;1.90;80.50;;;;;;6275579;28;20499;-81
2023/12/23 14:34:52;;;;;;;3.70;3.50;;;1.90;80.50;;;;;;6279076;28;20229;-78
2023/12/23 14:37:57;;;;;;;4.00;3.90;;;1.80;80.80;;;;;;6267679;28;20231;-79
2023/12/23 14:41:00;;;;;;;3.90;3.80;;;1.90;80.70;;;;;;6271436;28;20225;-80
2023/12/23 14:44:05;;;;;;;3.90;3.80;;;1.90;80.90;;;;;;6266156;28;20230;-81
2023/12/23 14:47:08;;;;;;;3.90;3.80;;;1.90;81.00;;;;;;6268196;28;20249;-79
2023/12/23 14:50:11;;;;;;;4.23;3.93;;;1.90;80.90;;;;;;6270161;28;20706;-80
2023/12/23 14:53:19;;;;;;;3.90;3.80;;;1.90;80.80;;;;;;6276124;28;20865;-80
2023/12/23 14:56:22;;;;;;;3.63;3.50;;;2.00;80.70;;;;;;6272811;28;20298;-79
2023/12/23 14:59:28;;;;;;;4.40;4.10;;;2.00;80.60;;;;;;6277758;28;20245;-79
2023/12/23 15:02:31;;;;;;;4.20;3.80;;;2.00;80.50;;;;;;6276182;28;20245;-81
2023/12/23 15:05:34;;;;;;;3.80;3.70;;;2.00;80.50;;;;;;6285056;28;20324;-80
2023/12/23 15:08:38;;;;;;;3.60;3.43;;;2.00;80.50;;;;;;6276250;28;20240;-80
2023/12/23 15:11:41;;;;;;;3.87;3.87;;;2.00;80.50;;;;;;6274469;28;20263;-77
2023/12/23 15:14:45;;;;;;;3.70;3.60;;;2.10;80.40;;;;;;6280731;28;20229;-78
2023/12/23 15:17:48;;;;;;;3.97;3.80;;;2.10;79.70;;;;;;6281696;28;20229;-79
2023/12/23 15:20:51;;;;;;;3.40;3.40;;;2.10;79.90;;;;;;6283260;28;20221;-79
2023/12/23 15:23:56;;;;;;;3.83;3.73;;;2.10;79.80;;;;;;6280831;28;20244;-78
2023/12/23 15:26:59;;;;;;;4.17;3.90;;;2.20;79.60;;;;;;6285262;28;20232;-79
2023/12/23 15:30:04;;;;;;;4.33;4.13;;;2.20;79.40;;;;;;6286267;28;20236;-80
2023/12/23 15:33:07;;;;;;;3.70;3.60;;;2.20;79.50;;;;;;6271871;28;20313;-80
2023/12/23 15:36:11;;;;;;;4.13;3.90;;;2.20;79.40;;;;;;6278293;28;20417;-80
2023/12/23 15:39:15;;;;;;;4.00;3.90;;;2.20;79.50;;;;;;6279936;28;20308;-79
2023/12/23 15:42:19;;;;;;;4.00;3.80;;;2.20;79.50;;;;;;6272620;28;20243;-81
2023/12/23 15:45:22;;;;;;;3.70;3.60;;;2.20;78.70;;;;;;6287772;28;20904;-78
2023/12/23 15:48:25;;;;;;;4.03;3.90;;;2.20;78.80;;;;;;6281336;28;20248;-78
2023/12/23 15:51:31;;;;;;;4.17;3.93;;;2.20;78.90;;;;;;6235513;28;20240;-79
2023/12/23 15:54:36;;;;;;;3.43;3.33;;;2.20;78.50;;;;;;6279392;28;20257;-79
2023/12/23 15:57:39;;;;;;;3.77;3.57;;;2.10;78.70;;;;;;6286227;28;20323;-80
2023/12/23 16:00:42;;;;;;;4.10;3.80;;;2.10;78.70;;;;;;6281417;28;20239;-80
2023/12/23 16:03:47;;;;;;;4.20;3.90;;;2.10;78.80;;;;;;6270093;28;20312;-80
2023/12/23 16:06:52;;;;;;;4.00;3.63;;;2.10;78.90;;;;;;6283265;28;20236;-80
2023/12/23 16:09:57;;;;;;;3.93;3.67;;;2.10;78.90;;;;;;6276937;28;20708;-80